Austin, TX (78716)

8:27 AM CDT on March 29, 2017 (GMT -0500)
Huston-Tillotson Environmental Studies | | Change Station

Elev 545 ft 30.26 °N, 97.72 °W | Updated 5 minutes ago

Mostly Cloudy
Mostly Cloudy
61.0 °F
Feels Like 61.0 °F
N
0.0
Wind Variable Wind from SE
Gusts 5.0 mph

Today
High -- | Low -- °F
--% Chance of Precip.
Yesterday
High -- | Low -- °F
Precip. -- in
Pressure 29.74 in
Visibility 8.0 miles
Clouds Overcast 500 ft
Dew Point 60 °F
Humidity 95%
Rainfall 0.95 in
Snow Depth Not available.
7:23 AM 7:48 PM
Waxing Crescent, 3% visible
METAR KATT 291251Z AUTO 00000KT 8SM OVC005 16/16 A2976 RMK AO2 SLP070 T01610156 $
Pressure 29.74 in
Visibility 8.0 miles
Clouds Overcast 500 ft
Dew Point 60 °F
Humidity 95%
Rainfall 0.95 in
Snow Depth Not available.
7:23 AM 7:48 PM
Waxing Crescent, 3% visible
METAR KATT 291251Z AUTO 00000KT 8SM OVC005 16/16 A2976 RMK AO2 SLP070 T01610156 $

Get Severe Weather Alerts

Thanks for signing up!

Be on the lookout for a verification email in your inbox.

You'll start receiving the daily forecast at 8 AM.

×

10-Day Weather Forecast

Almanac

Astronomy

Mar. 29, 2017 Rise Set
Actual Time
Civil Twilight
Nautical Twilight
Astronomical Twilight
Moon
Length of Visible Light
Length of Day
Tomorrow will be .
, % of the Moon is Illuminated

Today's Extremes

State Highs State Lows

Community

WunderPhotos

Upload Photos

1,962,540 photos uploaded!

WunderBlog® & News

Nearby

Air Quality

  Air Quality AQ Index Pollutant
Not available.

Snow Depth

Station Depth Elevation

Earthquake Activity

City Distance Mag. Time & Date
Minimum magnitude displayed is 2.5.

Earthquake Activity

City Distance Mag. Time & Date
Minimum magnitude displayed is 2.5.

Coastal Water Temperatures

Place Temperature

Stations

Nearby Weather Stations

Station Location Temp. Windchill Dew Point Humidity Wind Precip. Elev Updated Type
                   

Watches & Warnings

There are currently no watches in effect.